sensor_id;sensor_type;location;lat;lon;timestamp;temperature;humidity
11497;DHT22;5805;51.542;7.230;2022-07-06T00:01:43;18.70;99.90
11497;DHT22;5805;51.542;7.230;2022-07-06T00:04:09;18.70;99.70
11497;DHT22;5805;51.542;7.230;2022-07-06T00:06:35;18.70;99.40
11497;DHT22;5805;51.542;7.230;2022-07-06T00:09:04;18.70;99.10
11497;DHT22;5805;51.542;7.230;2022-07-06T00:11:30;18.70;98.90
11497;DHT22;5805;51.542;7.230;2022-07-06T00:13:56;18.70;98.60
11497;DHT22;5805;51.542;7.230;2022-07-06T00:16:23;18.60;98.70
11497;DHT22;5805;51.542;7.230;2022-07-06T00:18:50;18.60;98.70
11497;DHT22;5805;51.542;7.230;2022-07-06T00:21:15;18.60;98.60
11497;DHT22;5805;51.542;7.230;2022-07-06T00:23:41;18.50;99.10
11497;DHT22;5805;51.542;7.230;2022-07-06T00:26:07;18.60;98.90
11497;DHT22;5805;51.542;7.230;2022-07-06T00:28:33;18.50;99.10
11497;DHT22;5805;51.542;7.230;2022-07-06T00:30:58;18.60;98.70
11497;DHT22;5805;51.542;7.230;2022-07-06T00:33:26;18.60;98.50
11497;DHT22;5805;51.542;7.230;2022-07-06T00:35:51;18.70;98.50
11497;DHT22;5805;51.542;7.230;2022-07-06T00:38:17;18.70;98.30
11497;DHT22;5805;51.542;7.230;2022-07-06T00:40:43;18.70;98.10
11497;DHT22;5805;51.542;7.230;2022-07-06T00:43:09;18.80;97.90
11497;DHT22;5805;51.542;7.230;2022-07-06T00:45:34;18.70;97.80
11497;DHT22;5805;51.542;7.230;2022-07-06T00:48:00;18.60;97.80
11497;DHT22;5805;51.542;7.230;2022-07-06T00:50:27;18.50;98.10
11497;DHT22;5805;51.542;7.230;2022-07-06T00:52:54;18.40;98.70
11497;DHT22;5805;51.542;7.230;2022-07-06T00:55:22;18.30;98.90
11497;DHT22;5805;51.542;7.230;2022-07-06T00:57:49;18.20;99.20
11497;DHT22;5805;51.542;7.230;2022-07-06T01:00:16;18.20;99.30
11497;DHT22;5805;51.542;7.230;2022-07-06T01:02:42;18.10;99.70
11497;DHT22;5805;51.542;7.230;2022-07-06T01:05:09;18.10;99.70
11497;DHT22;5805;51.542;7.230;2022-07-06T01:07:37;18.00;99.90
11497;DHT22;5805;51.542;7.230;2022-07-06T01:10:05;18.00;99.90
11497;DHT22;5805;51.542;7.230;2022-07-06T01:12:33;18.00;99.90
11497;DHT22;5805;51.542;7.230;2022-07-06T01:15:00;18.10;99.80
11497;DHT22;5805;51.542;7.230;2022-07-06T01:17:27;18.10;99.80
11497;DHT22;5805;51.542;7.230;2022-07-06T01:19:53;18.10;99.40
11497;DHT22;5805;51.542;7.230;2022-07-06T01:22:20;18.20;99.30
11497;DHT22;5805;51.542;7.230;2022-07-06T01:24:46;18.20;99.20
11497;DHT22;5805;51.542;7.230;2022-07-06T01:27:11;18.20;99.00
11497;DHT22;5805;51.542;7.230;2022-07-06T01:29:37;18.20;99.10
11497;DHT22;5805;51.542;7.230;2022-07-06T01:32:04;18.20;99.20
11497;DHT22;5805;51.542;7.230;2022-07-06T01:34:29;18.20;99.10
11497;DHT22;5805;51.542;7.230;2022-07-06T01:36:55;18.20;99.20
11497;DHT22;5805;51.542;7.230;2022-07-06T01:39:22;18.20;99.30
11497;DHT22;5805;51.542;7.230;2022-07-06T01:41:48;18.10;99.50
11497;DHT22;5805;51.542;7.230;2022-07-06T01:44:14;18.00;99.80
11497;DHT22;5805;51.542;7.230;2022-07-06T01:46:40;17.90;99.80
11497;DHT22;5805;51.542;7.230;2022-07-06T01:49:05;18.00;99.90
11497;DHT22;5805;51.542;7.230;2022-07-06T01:51:31;18.00;99.90
11497;DHT22;5805;51.542;7.230;2022-07-06T01:53:57;17.80;99.90
11497;DHT22;5805;51.542;7.230;2022-07-06T01:56:24;17.80;99.90
11497;DHT22;5805;51.542;7.230;2022-07-06T01:58:50;17.80;99.90
11497;DHT22;5805;51.542;7.230;2022-07-06T02:01:17;17.80;99.90
11497;DHT22;5805;51.542;7.230;2022-07-06T02:03:43;17.70;99.90
11497;DHT22;5805;51.542;7.230;2022-07-06T02:06:10;17.60;99.90
11497;DHT22;5805;51.542;7.230;2022-07-06T02:08:36;17.60;99.90
11497;DHT22;5805;51.542;7.230;2022-07-06T02:11:03;17.50;99.90
11497;DHT22;5805;51.542;7.230;2022-07-06T02:13:30;17.50;99.90
11497;DHT22;5805;51.542;7.230;2022-07-06T02:15:56;17.50;99.90
11497;DHT22;5805;51.542;7.230;2022-07-06T02:18:21;17.50;99.90
11497;DHT22;5805;51.542;7.230;2022-07-06T02:20:47;17.40;99.90
11497;DHT22;5805;51.542;7.230;2022-07-06T02:23:13;17.40;99.90
11497;DHT22;5805;51.542;7.230;2022-07-06T02:25:38;17.40;99.90
11497;DHT22;5805;51.542;7.230;2022-07-06T02:28:04;17.40;99.90
11497;DHT22;5805;51.542;7.230;2022-07-06T02:30:31;17.30;99.90
11497;DHT22;5805;51.542;7.230;2022-07-06T02:32:57;17.40;99.90
11497;DHT22;5805;51.542;7.230;2022-07-06T02:35:23;17.30;99.90
11497;DHT22;5805;51.542;7.230;2022-07-06T02:37:49;17.30;99.90
11497;DHT22;5805;51.542;7.230;2022-07-06T02:40:14;17.30;99.90
11497;DHT22;5805;51.542;7.230;2022-07-06T02:42:40;17.30;99.90
11497;DHT22;5805;51.542;7.230;2022-07-06T02:45:07;17.30;99.90
11497;DHT22;5805;51.542;7.230;2022-07-06T02:47:34;17.30;99.90
11497;DHT22;5805;51.542;7.230;2022-07-06T02:50:00;17.20;99.90
11497;DHT22;5805;51.542;7.230;2022-07-06T02:52:26;17.20;99.90
11497;DHT22;5805;51.542;7.230;2022-07-06T02:54:51;17.20;99.90
11497;DHT22;5805;51.542;7.230;2022-07-06T02:57:17;17.20;99.90
11497;DHT22;5805;51.542;7.230;2022-07-06T02:59:43;17.10;99.90
11497;DHT22;5805;51.542;7.230;2022-07-06T03:02:09;17.10;99.90
11497;DHT22;5805;51.542;7.230;2022-07-06T03:04:36;17.00;99.90
11497;DHT22;5805;51.542;7.230;2022-07-06T03:07:02;17.00;99.90
11497;DHT22;5805;51.542;7.230;2022-07-06T03:09:28;17.10;99.90
11497;DHT22;5805;51.542;7.230;2022-07-06T03:11:54;17.10;99.90
11497;DHT22;5805;51.542;7.230;2022-07-06T03:14:20;17.10;99.90
11497;DHT22;5805;51.542;7.230;2022-07-06T03:16:45;17.10;99.90
11497;DHT22;5805;51.542;7.230;2022-07-06T03:19:11;17.00;99.90
11497;DHT22;5805;51.542;7.230;2022-07-06T03:21:38;17.10;99.90
11497;DHT22;5805;51.542;7.230;2022-07-06T03:24:04;17.10;99.90
11497;DHT22;5805;51.542;7.230;2022-07-06T03:26:30;17.10;99.90
11497;DHT22;5805;51.542;7.230;2022-07-06T03:28:56;17.10;99.90
11497;DHT22;5805;51.542;7.230;2022-07-06T03:31:22;17.10;99.90
11497;DHT22;5805;51.542;7.230;2022-07-06T03:33:47;17.10;99.90
11497;DHT22;5805;51.542;7.230;2022-07-06T03:36:13;17.10;99.90
11497;DHT22;5805;51.542;7.230;2022-07-06T03:38:40;17.20;99.90
11497;DHT22;5805;51.542;7.230;2022-07-06T03:41:06;17.20;99.90
11497;DHT22;5805;51.542;7.230;2022-07-06T03:43:31;17.20;99.90
11497;DHT22;5805;51.542;7.230;2022-07-06T03:45:57;17.30;99.90
11497;DHT22;5805;51.542;7.230;2022-07-06T03:48:23;17.30;99.90
11497;DHT22;5805;51.542;7.230;2022-07-06T03:50:49;17.30;99.90
11497;DHT22;5805;51.542;7.230;2022-07-06T03:53:14;17.30;99.90
11497;DHT22;5805;51.542;7.230;2022-07-06T03:55:41;17.30;99.90
11497;DHT22;5805;51.542;7.230;2022-07-06T03:58:07;17.40;99.90
11497;DHT22;5805;51.542;7.230;2022-07-06T04:00:33;17.40;99.90
11497;DHT22;5805;51.542;7.230;2022-07-06T04:02:58;17.40;99.90
11497;DHT22;5805;51.542;7.230;2022-07-06T04:05:24;17.50;99.90
11497;DHT22;5805;51.542;7.230;2022-07-06T04:07:50;17.50;99.90
11497;DHT22;5805;51.542;7.230;2022-07-06T04:10:16;17.50;99.90
11497;DHT22;5805;51.542;7.230;2022-07-06T04:12:44;17.60;99.90
11497;DHT22;5805;51.542;7.230;2022-07-06T04:15:11;17.70;99.90
11497;DHT22;5805;51.542;7.230;2022-07-06T04:17:37;17.70;99.90
11497;DHT22;5805;51.542;7.230;2022-07-06T04:20:03;17.70;99.90
11497;DHT22;5805;51.542;7.230;2022-07-06T04:22:29;17.80;99.90
11497;DHT22;5805;51.542;7.230;2022-07-06T04:24:55;17.90;99.90
11497;DHT22;5805;51.542;7.230;2022-07-06T04:27:20;17.90;99.90
11497;DHT22;5805;51.542;7.230;2022-07-06T04:29:47;18.00;99.90
11497;DHT22;5805;51.542;7.230;2022-07-06T04:32:13;18.00;99.90
11497;DHT22;5805;51.542;7.230;2022-07-06T04:34:39;18.00;99.90
11497;DHT22;5805;51.542;7.230;2022-07-06T04:37:04;18.00;99.90
11497;DHT22;5805;51.542;7.230;2022-07-06T04:39:30;18.20;99.90
11497;DHT22;5805;51.542;7.230;2022-07-06T04:41:56;18.20;99.90
11497;DHT22;5805;51.542;7.230;2022-07-06T04:44:21;18.20;99.90
11497;DHT22;5805;51.542;7.230;2022-07-06T04:46:48;18.20;99.90
11497;DHT22;5805;51.542;7.230;2022-07-06T04:49:14;18.20;99.90
11497;DHT22;5805;51.542;7.230;2022-07-06T04:51:40;18.20;99.90
11497;DHT22;5805;51.542;7.230;2022-07-06T04:54:05;18.00;99.90
11497;DHT22;5805;51.542;7.230;2022-07-06T04:56:31;18.00;99.90
11497;DHT22;5805;51.542;7.230;2022-07-06T04:58:57;18.00;99.90
11497;DHT22;5805;51.542;7.230;2022-07-06T05:01:22;17.90;99.90
11497;DHT22;5805;51.542;7.230;2022-07-06T05:03:49;17.90;99.90
11497;DHT22;5805;51.542;7.230;2022-07-06T05:06:15;17.90;99.90
11497;DHT22;5805;51.542;7.230;2022-07-06T05:08:41;17.90;99.90
11497;DHT22;5805;51.542;7.230;2022-07-06T05:11:06;17.90;99.90
11497;DHT22;5805;51.542;7.230;2022-07-06T05:13:32;18.00;99.90
11497;DHT22;5805;51.542;7.230;2022-07-06T05:15:58;18.20;99.90
11497;DHT22;5805;51.542;7.230;2022-07-06T05:18:23;18.20;99.90
11497;DHT22;5805;51.542;7.230;2022-07-06T05:20:50;18.20;99.90
11497;DHT22;5805;51.542;7.230;2022-07-06T05:23:16;18.30;99.90
11497;DHT22;5805;51.542;7.230;2022-07-06T05:25:42;18.30;99.90
11497;DHT22;5805;51.542;7.230;2022-07-06T05:28:07;18.70;99.90
11497;DHT22;5805;51.542;7.230;2022-07-06T05:30:33;18.40;99.90
11497;DHT22;5805;51.542;7.230;2022-07-06T05:32:59;18.50;99.90
11497;DHT22;5805;51.542;7.230;2022-07-06T05:35:25;18.50;99.90
11497;DHT22;5805;51.542;7.230;2022-07-06T05:37:52;18.50;99.90
11497;DHT22;5805;51.542;7.230;2022-07-06T05:40:17;18.50;99.90
11497;DHT22;5805;51.542;7.230;2022-07-06T05:42:43;18.50;99.90
11497;DHT22;5805;51.542;7.230;2022-07-06T05:45:09;18.70;99.90
11497;DHT22;5805;51.542;7.230;2022-07-06T05:47:35;18.70;99.90
11497;DHT22;5805;51.542;7.230;2022-07-06T05:50:00;18.80;99.90
11497;DHT22;5805;51.542;7.230;2022-07-06T05:52:26;18.90;99.90
11497;DHT22;5805;51.542;7.230;2022-07-06T05:54:53;19.10;99.90
11497;DHT22;5805;51.542;7.230;2022-07-06T05:57:19;19.10;99.90
11497;DHT22;5805;51.542;7.230;2022-07-06T05:59:44;19.10;99.90
11497;DHT22;5805;51.542;7.230;2022-07-06T06:02:10;19.20;99.90
11497;DHT22;5805;51.542;7.230;2022-07-06T06:04:36;19.50;99.90
11497;DHT22;5805;51.542;7.230;2022-07-06T06:07:02;19.80;99.90
11497;DHT22;5805;51.542;7.230;2022-07-06T06:09:27;20.10;99.70
11497;DHT22;5805;51.542;7.230;2022-07-06T06:11:54;20.40;99.20
11497;DHT22;5805;51.542;7.230;2022-07-06T06:14:20;20.70;97.80
11497;DHT22;5805;51.542;7.230;2022-07-06T06:16:46;20.80;96.50
11497;DHT22;5805;51.542;7.230;2022-07-06T06:19:11;20.80;95.90
11497;DHT22;5805;51.542;7.230;2022-07-06T06:21:37;20.90;95.50
11497;DHT22;5805;51.542;7.230;2022-07-06T06:24:03;20.90;95.10
11497;DHT22;5805;51.542;7.230;2022-07-06T06:26:29;20.80;95.00
11497;DHT22;5805;51.542;7.230;2022-07-06T06:28:56;20.80;95.20
11497;DHT22;5805;51.542;7.230;2022-07-06T06:31:21;20.80;94.80
11497;DHT22;5805;51.542;7.230;2022-07-06T06:33:47;21.10;95.00
11497;DHT22;5805;51.542;7.230;2022-07-06T06:36:13;20.70;94.70
11497;DHT22;5805;51.542;7.230;2022-07-06T06:38:39;20.60;94.80
11497;DHT22;5805;51.542;7.230;2022-07-06T06:41:04;20.50;95.00
11497;DHT22;5805;51.542;7.230;2022-07-06T06:43:30;20.50;95.30
11497;DHT22;5805;51.542;7.230;2022-07-06T06:45:57;20.40;95.40
11497;DHT22;5805;51.542;7.230;2022-07-06T06:48:23;20.30;95.70
11497;DHT22;5805;51.542;7.230;2022-07-06T06:50:48;20.30;96.10
11497;DHT22;5805;51.542;7.230;2022-07-06T06:53:14;20.20;96.10
11497;DHT22;5805;51.542;7.230;2022-07-06T06:55:40;20.20;96.20
11497;DHT22;5805;51.542;7.230;2022-07-06T06:58:05;20.30;96.20
11497;DHT22;5805;51.542;7.230;2022-07-06T07:00:31;20.40;96.00
11497;DHT22;5805;51.542;7.230;2022-07-06T07:02:58;20.60;95.70
11497;DHT22;5805;51.542;7.230;2022-07-06T07:05:24;20.90;94.90
11497;DHT22;5805;51.542;7.230;2022-07-06T07:07:50;21.10;94.20
11497;DHT22;5805;51.542;7.230;2022-07-06T07:10:16;21.20;93.40
11497;DHT22;5805;51.542;7.230;2022-07-06T07:12:45;21.30;93.00
11497;DHT22;5805;51.542;7.230;2022-07-06T07:15:10;21.50;92.10
11497;DHT22;5805;51.542;7.230;2022-07-06T07:17:36;21.70;91.50
11497;DHT22;5805;51.542;7.230;2022-07-06T07:20:04;22.00;90.70
11497;DHT22;5805;51.542;7.230;2022-07-06T07:22:30;22.30;90.00
11497;DHT22;5805;51.542;7.230;2022-07-06T07:24:55;22.60;86.90
11497;DHT22;5805;51.542;7.230;2022-07-06T07:27:21;23.00;85.10
11497;DHT22;5805;51.542;7.230;2022-07-06T07:29:47;23.30;81.50
11497;DHT22;5805;51.542;7.230;2022-07-06T07:32:13;23.30;80.10
11497;DHT22;5805;51.542;7.230;2022-07-06T07:34:38;23.40;79.40
11497;DHT22;5805;51.542;7.230;2022-07-06T07:37:05;23.40;78.30
11497;DHT22;5805;51.542;7.230;2022-07-06T07:39:31;23.50;75.70
11497;DHT22;5805;51.542;7.230;2022-07-06T07:41:57;23.60;76.70
11497;DHT22;5805;51.542;7.230;2022-07-06T07:44:22;23.90;75.20
11497;DHT22;5805;51.542;7.230;2022-07-06T07:46:48;24.40;71.90
11497;DHT22;5805;51.542;7.230;2022-07-06T07:49:14;25.00;68.80
11497;DHT22;5805;51.542;7.230;2022-07-06T07:51:39;25.30;66.40
11497;DHT22;5805;51.542;7.230;2022-07-06T07:54:07;25.80;66.20
11497;DHT22;5805;51.542;7.230;2022-07-06T07:56:32;27.20;63.20
11497;DHT22;5805;51.542;7.230;2022-07-06T07:58:58;28.90;58.10
11497;DHT22;5805;51.542;7.230;2022-07-06T08:01:24;29.20;52.40
11497;DHT22;5805;51.542;7.230;2022-07-06T08:03:49;29.50;51.80
11497;DHT22;5805;51.542;7.230;2022-07-06T08:06:15;30.40;50.00
11497;DHT22;5805;51.542;7.230;2022-07-06T08:08:41;30.30;48.40
11497;DHT22;5805;51.542;7.230;2022-07-06T08:11:08;29.70;47.70
11497;DHT22;5805;51.542;7.230;2022-07-06T08:13:33;29.20;46.40
11497;DHT22;5805;51.542;7.230;2022-07-06T08:15:59;28.30;47.20
11497;DHT22;5805;51.542;7.230;2022-07-06T08:18:25;27.40;48.20
11497;DHT22;5805;51.542;7.230;2022-07-06T08:20:50;26.50;49.20
11497;DHT22;5805;51.542;7.230;2022-07-06T08:23:16;25.70;50.50
11497;DHT22;5805;51.542;7.230;2022-07-06T08:25:42;25.00;51.90
11497;DHT22;5805;51.542;7.230;2022-07-06T08:28:09;24.80;52.70
11497;DHT22;5805;51.542;7.230;2022-07-06T08:30:35;24.70;52.70
11497;DHT22;5805;51.542;7.230;2022-07-06T08:33:00;24.60;52.80
11497;DHT22;5805;51.542;7.230;2022-07-06T08:35:26;24.70;53.30
11497;DHT22;5805;51.542;7.230;2022-07-06T08:37:52;24.60;53.50
11497;DHT22;5805;51.542;7.230;2022-07-06T08:40:18;24.40;54.00
11497;DHT22;5805;51.542;7.230;2022-07-06T08:42:44;24.20;54.60
11497;DHT22;5805;51.542;7.230;2022-07-06T08:45:12;23.90;54.90
11497;DHT22;5805;51.542;7.230;2022-07-06T08:47:40;23.70;56.00
11497;DHT22;5805;51.542;7.230;2022-07-06T08:50:07;23.80;56.80
11497;DHT22;5805;51.542;7.230;2022-07-06T08:52:34;23.80;56.70
11497;DHT22;5805;51.542;7.230;2022-07-06T08:55:00;24.00;56.70
11497;DHT22;5805;51.542;7.230;2022-07-06T08:57:26;24.10;56.80
11497;DHT22;5805;51.542;7.230;2022-07-06T08:59:52;24.40;57.00
11497;DHT22;5805;51.542;7.230;2022-07-06T09:02:19;24.60;56.80
11497;DHT22;5805;51.542;7.230;2022-07-06T09:04:48;24.80;56.30
11497;DHT22;5805;51.542;7.230;2022-07-06T09:07:16;25.10;55.70
11497;DHT22;5805;51.542;7.230;2022-07-06T09:09:43;25.00;54.00
11497;DHT22;5805;51.542;7.230;2022-07-06T09:12:11;25.10;53.60
11497;DHT22;5805;51.542;7.230;2022-07-06T09:14:37;25.20;53.20
11497;DHT22;5805;51.542;7.230;2022-07-06T09:17:05;25.40;53.40
11497;DHT22;5805;51.542;7.230;2022-07-06T09:19:34;25.70;53.10
11497;DHT22;5805;51.542;7.230;2022-07-06T09:22:00;25.80;52.80
11497;DHT22;5805;51.542;7.230;2022-07-06T09:24:26;25.90;52.50
11497;DHT22;5805;51.542;7.230;2022-07-06T09:26:54;25.70;52.20
11497;DHT22;5805;51.542;7.230;2022-07-06T09:29:26;26.00;51.80
11497;DHT22;5805;51.542;7.230;2022-07-06T09:31:57;26.10;51.50
11497;DHT22;5805;51.542;7.230;2022-07-06T09:34:22;26.50;51.30
11497;DHT22;5805;51.542;7.230;2022-07-06T09:36:50;26.70;50.80
11497;DHT22;5805;51.542;7.230;2022-07-06T09:39:17;27.00;50.60
11497;DHT22;5805;51.542;7.230;2022-07-06T09:41:43;27.30;50.20
11497;DHT22;5805;51.542;7.230;2022-07-06T09:44:09;27.30;49.60
11497;DHT22;5805;51.542;7.230;2022-07-06T09:46:38;27.10;49.80
11497;DHT22;5805;51.542;7.230;2022-07-06T09:49:06;26.80;50.00
11497;DHT22;5805;51.542;7.230;2022-07-06T09:51:35;26.80;50.50
11497;DHT22;5805;51.542;7.230;2022-07-06T09:54:05;26.70;50.20
11497;DHT22;5805;51.542;7.230;2022-07-06T09:56:36;26.60;49.90
11497;DHT22;5805;51.542;7.230;2022-07-06T09:59:07;26.20;50.40
11497;DHT22;5805;51.542;7.230;2022-07-06T10:01:33;25.70;50.70
11497;DHT22;5805;51.542;7.230;2022-07-06T10:03:58;25.40;51.60
11497;DHT22;5805;51.542;7.230;2022-07-06T10:06:25;25.20;52.40
11497;DHT22;5805;51.542;7.230;2022-07-06T10:08:51;25.20;52.90
11497;DHT22;5805;51.542;7.230;2022-07-06T10:11:18;25.20;52.70
11497;DHT22;5805;51.542;7.230;2022-07-06T10:13:46;25.20;52.70
11497;DHT22;5805;51.542;7.230;2022-07-06T10:16:13;25.20;52.40
11497;DHT22;5805;51.542;7.230;2022-07-06T10:18:40;25.20;52.20
11497;DHT22;5805;51.542;7.230;2022-07-06T10:21:07;25.20;52.30
11497;DHT22;5805;51.542;7.230;2022-07-06T10:23:33;25.20;52.30
11497;DHT22;5805;51.542;7.230;2022-07-06T10:26:00;25.30;52.80
11497;DHT22;5805;51.542;7.230;2022-07-06T10:28:28;25.50;52.80
11497;DHT22;5805;51.542;7.230;2022-07-06T10:30:54;25.60;52.60
11497;DHT22;5805;51.542;7.230;2022-07-06T10:33:20;25.60;52.20
11497;DHT22;5805;51.542;7.230;2022-07-06T10:35:46;25.30;52.20
11497;DHT22;5805;51.542;7.230;2022-07-06T10:38:12;25.50;52.70
11497;DHT22;5805;51.542;7.230;2022-07-06T10:40:39;25.70;51.60
11497;DHT22;5805;51.542;7.230;2022-07-06T10:43:05;25.90;51.00
11497;DHT22;5805;51.542;7.230;2022-07-06T10:45:56;26.00;50.90
11497;DHT22;5805;51.542;7.230;2022-07-06T10:48:22;25.90;50.80
11497;DHT22;5805;51.542;7.230;2022-07-06T10:50:49;26.00;50.70
11497;DHT22;5805;51.542;7.230;2022-07-06T10:53:16;25.80;50.30
11497;DHT22;5805;51.542;7.230;2022-07-06T10:55:44;25.60;50.80
11497;DHT22;5805;51.542;7.230;2022-07-06T10:58:09;25.40;51.30
11497;DHT22;5805;51.542;7.230;2022-07-06T11:00:51;25.10;51.60
11497;DHT22;5805;51.542;7.230;2022-07-06T11:03:38;25.00;51.70
11497;DHT22;5805;51.542;7.230;2022-07-06T11:06:08;24.90;52.20
11497;DHT22;5805;51.542;7.230;2022-07-06T11:08:59;24.90;52.40
11497;DHT22;5805;51.542;7.230;2022-07-06T11:11:26;25.10;52.10
11497;DHT22;5805;51.542;7.230;2022-07-06T11:14:05;25.30;52.40
11497;DHT22;5805;51.542;7.230;2022-07-06T11:16:32;25.40;51.90
11497;DHT22;5805;51.542;7.230;2022-07-06T11:19:08;25.40;51.60
11497;DHT22;5805;51.542;7.230;2022-07-06T11:21:39;25.40;51.60
11497;DHT22;5805;51.542;7.230;2022-07-06T11:24:07;25.40;51.60
11497;DHT22;5805;51.542;7.230;2022-07-06T11:26:34;25.30;51.80
11497;DHT22;5805;51.542;7.230;2022-07-06T11:29:00;25.50;51.40
11497;DHT22;5805;51.542;7.230;2022-07-06T11:31:26;25.50;51.60
11497;DHT22;5805;51.542;7.230;2022-07-06T11:33:52;25.80;51.70
11497;DHT22;5805;51.542;7.230;2022-07-06T11:36:20;26.00;50.90
11497;DHT22;5805;51.542;7.230;2022-07-06T11:38:47;26.20;50.30
11497;DHT22;5805;51.542;7.230;2022-07-06T11:41:13;26.20;49.90
11497;DHT22;5805;51.542;7.230;2022-07-06T11:43:40;26.30;49.90
11497;DHT22;5805;51.542;7.230;2022-07-06T11:46:06;26.50;49.70
11497;DHT22;5805;51.542;7.230;2022-07-06T11:48:32;26.60;49.10
11497;DHT22;5805;51.542;7.230;2022-07-06T11:50:59;26.70;48.90
11497;DHT22;5805;51.542;7.230;2022-07-06T11:53:26;26.60;48.40
11497;DHT22;5805;51.542;7.230;2022-07-06T11:55:52;26.30;48.00
11497;DHT22;5805;51.542;7.230;2022-07-06T11:58:21;26.00;48.60
11497;DHT22;5805;51.542;7.230;2022-07-06T12:01:02;25.80;49.30
11497;DHT22;5805;51.542;7.230;2022-07-06T12:03:28;25.70;49.80
11497;DHT22;5805;51.542;7.230;2022-07-06T12:05:54;25.70;49.10
11497;DHT22;5805;51.542;7.230;2022-07-06T12:08:20;25.70;48.90
11497;DHT22;5805;51.542;7.230;2022-07-06T12:10:47;25.80;49.00
11497;DHT22;5805;51.542;7.230;2022-07-06T12:13:13;25.80;49.10
11497;DHT22;5805;51.542;7.230;2022-07-06T12:15:38;25.90;48.90
11497;DHT22;5805;51.542;7.230;2022-07-06T12:18:04;25.90;49.20
11497;DHT22;5805;51.542;7.230;2022-07-06T12:20:30;25.90;48.80
11497;DHT22;5805;51.542;7.230;2022-07-06T12:23:01;25.90;48.50
11497;DHT22;5805;51.542;7.230;2022-07-06T12:25:30;25.90;48.60
11497;DHT22;5805;51.542;7.230;2022-07-06T12:27:58;25.90;47.90
11497;DHT22;5805;51.542;7.230;2022-07-06T12:30:23;26.00;47.70
11497;DHT22;5805;51.542;7.230;2022-07-06T12:33:10;26.10;47.30
11497;DHT22;5805;51.542;7.230;2022-07-06T12:35:36;26.20;47.00
11497;DHT22;5805;51.542;7.230;2022-07-06T12:38:01;26.10;46.60
11497;DHT22;5805;51.542;7.230;2022-07-06T12:40:27;26.20;46.70
11497;DHT22;5805;51.542;7.230;2022-07-06T12:42:54;26.10;47.30
11497;DHT22;5805;51.542;7.230;2022-07-06T12:45:26;26.20;47.20
11497;DHT22;5805;51.542;7.230;2022-07-06T12:47:59;26.20;46.70
11497;DHT22;5805;51.542;7.230;2022-07-06T12:50:30;26.00;47.30
11497;DHT22;5805;51.542;7.230;2022-07-06T12:52:56;26.10;47.40
11497;DHT22;5805;51.542;7.230;2022-07-06T12:55:25;26.20;47.30
11497;DHT22;5805;51.542;7.230;2022-07-06T12:57:51;26.30;46.80
11497;DHT22;5805;51.542;7.230;2022-07-06T13:00:18;26.30;46.30
11497;DHT22;5805;51.542;7.230;2022-07-06T13:02:46;26.30;46.90
11497;DHT22;5805;51.542;7.230;2022-07-06T13:05:14;26.40;47.40
11497;DHT22;5805;51.542;7.230;2022-07-06T13:07:46;26.50;47.00
11497;DHT22;5805;51.542;7.230;2022-07-06T13:10:13;26.50;47.00
11497;DHT22;5805;51.542;7.230;2022-07-06T13:12:39;26.50;47.00
11497;DHT22;5805;51.542;7.230;2022-07-06T13:15:06;26.40;47.00
11497;DHT22;5805;51.542;7.230;2022-07-06T13:17:32;26.20;47.00
11497;DHT22;5805;51.542;7.230;2022-07-06T13:20:00;26.00;47.00
11497;DHT22;5805;51.542;7.230;2022-07-06T13:22:25;25.90;47.80
11497;DHT22;5805;51.542;7.230;2022-07-06T13:24:51;25.80;48.10
11497;DHT22;5805;51.542;7.230;2022-07-06T13:27:17;25.80;48.80
11497;DHT22;5805;51.542;7.230;2022-07-06T13:29:43;25.70;48.30
11497;DHT22;5805;51.542;7.230;2022-07-06T13:32:08;25.60;48.20
11497;DHT22;5805;51.542;7.230;2022-07-06T13:34:34;25.50;47.90
11497;DHT22;5805;51.542;7.230;2022-07-06T13:37:02;25.30;47.70
11497;DHT22;5805;51.542;7.230;2022-07-06T13:39:28;25.30;48.00
11497;DHT22;5805;51.542;7.230;2022-07-06T13:41:54;25.30;48.00
11497;DHT22;5805;51.542;7.230;2022-07-06T13:44:20;25.40;48.30
11497;DHT22;5805;51.542;7.230;2022-07-06T13:46:46;25.40;47.70
11497;DHT22;5805;51.542;7.230;2022-07-06T13:49:12;25.50;48.00
11497;DHT22;5805;51.542;7.230;2022-07-06T13:51:37;25.70;47.50
11497;DHT22;5805;51.542;7.230;2022-07-06T13:54:04;26.00;47.90
11497;DHT22;5805;51.542;7.230;2022-07-06T13:56:30;26.20;47.20
11497;DHT22;5805;51.542;7.230;2022-07-06T13:58:56;26.40;47.30
11497;DHT22;5805;51.542;7.230;2022-07-06T14:01:22;26.50;46.80
11497;DHT22;5805;51.542;7.230;2022-07-06T14:03:48;26.40;46.80
11497;DHT22;5805;51.542;7.230;2022-07-06T14:06:13;26.40;47.00
11497;DHT22;5805;51.542;7.230;2022-07-06T14:08:40;26.30;47.10
11497;DHT22;5805;51.542;7.230;2022-07-06T14:11:07;26.20;46.70
11497;DHT22;5805;51.542;7.230;2022-07-06T14:13:33;26.20;46.60
11497;DHT22;5805;51.542;7.230;2022-07-06T14:16:00;26.30;46.40
11497;DHT22;5805;51.542;7.230;2022-07-06T14:18:26;26.30;45.90
11497;DHT22;5805;51.542;7.230;2022-07-06T14:20:52;26.30;46.00
11497;DHT22;5805;51.542;7.230;2022-07-06T14:23:19;26.30;45.70
11497;DHT22;5805;51.542;7.230;2022-07-06T14:25:45;26.30;45.70
11497;DHT22;5805;51.542;7.230;2022-07-06T14:28:12;26.30;46.00
11497;DHT22;5805;51.542;7.230;2022-07-06T14:30:39;26.30;46.00
11497;DHT22;5805;51.542;7.230;2022-07-06T14:33:05;26.20;46.70
11497;DHT22;5805;51.542;7.230;2022-07-06T14:35:31;26.20;46.10
11497;DHT22;5805;51.542;7.230;2022-07-06T14:37:56;26.00;46.50
11497;DHT22;5805;51.542;7.230;2022-07-06T14:40:22;25.90;46.50
11497;DHT22;5805;51.542;7.230;2022-07-06T14:42:48;25.90;46.60
11497;DHT22;5805;51.542;7.230;2022-07-06T14:45:15;26.00;46.70
11497;DHT22;5805;51.542;7.230;2022-07-06T14:47:40;26.00;46.60
11497;DHT22;5805;51.542;7.230;2022-07-06T14:50:07;26.00;46.70
11497;DHT22;5805;51.542;7.230;2022-07-06T14:52:32;26.10;46.80
11497;DHT22;5805;51.542;7.230;2022-07-06T14:54:58;26.10;46.40
11497;DHT22;5805;51.542;7.230;2022-07-06T14:57:24;26.20;46.60
11497;DHT22;5805;51.542;7.230;2022-07-06T14:59:49;26.20;46.80
11497;DHT22;5805;51.542;7.230;2022-07-06T15:02:16;26.20;46.40
11497;DHT22;5805;51.542;7.230;2022-07-06T15:04:42;26.20;46.70
11497;DHT22;5805;51.542;7.230;2022-07-06T15:07:08;26.10;47.00
11497;DHT22;5805;51.542;7.230;2022-07-06T15:09:34;26.10;46.80
11497;DHT22;5805;51.542;7.230;2022-07-06T15:12:00;25.90;46.60
11497;DHT22;5805;51.542;7.230;2022-07-06T15:14:25;25.80;46.90
11497;DHT22;5805;51.542;7.230;2022-07-06T15:16:52;25.70;46.40
11497;DHT22;5805;51.542;7.230;2022-07-06T15:19:19;25.70;46.80
11497;DHT22;5805;51.542;7.230;2022-07-06T15:21:45;25.70;47.10
11497;DHT22;5805;51.542;7.230;2022-07-06T15:24:11;25.80;46.90
11497;DHT22;5805;51.542;7.230;2022-07-06T15:26:36;25.90;47.10
11497;DHT22;5805;51.542;7.230;2022-07-06T15:29:02;26.00;46.90
11497;DHT22;5805;51.542;7.230;2022-07-06T15:31:28;26.00;46.80
11497;DHT22;5805;51.542;7.230;2022-07-06T15:33:54;26.00;46.70
11497;DHT22;5805;51.542;7.230;2022-07-06T15:36:21;26.00;46.60
11497;DHT22;5805;51.542;7.230;2022-07-06T15:38:46;26.10;46.30
11497;DHT22;5805;51.542;7.230;2022-07-06T15:41:12;26.10;46.80